createdAt,value
2023-03-17T00:01:53.715Z,101207.59
2023-03-17T00:04:23.751Z,101202.41
2023-03-17T00:06:52.502Z,101202.20
2023-03-17T00:09:21.667Z,101204.16
2023-03-17T00:11:50.545Z,101197.55
2023-03-17T00:14:19.459Z,101187.04
2023-03-17T00:16:50.785Z,101187.70
2023-03-17T00:19:26.067Z,101187.95
2023-03-17T00:21:55.426Z,101183.88
2023-03-17T00:24:23.721Z,101183.27
2023-03-17T00:26:52.591Z,101185.39
2023-03-17T00:29:21.104Z,101183.61
2023-03-17T00:31:51.334Z,101176.75
2023-03-17T00:34:24.371Z,101172.81
2023-03-17T00:36:52.793Z,101165.92
2023-03-17T00:39:24.968Z,101160.75
2023-03-17T00:41:55.984Z,101156.67
2023-03-17T00:44:24.808Z,101148.23
2023-03-17T00:46:54.239Z,101144.11
2023-03-17T00:49:24.509Z,101150.86
2023-03-17T00:51:54.292Z,101159.16
2023-03-17T00:54:23.533Z,101152.04
2023-03-17T00:56:52.415Z,101138.08
2023-03-17T00:59:27.148Z,101130.99
2023-03-17T01:01:55.912Z,101124.71
2023-03-17T01:04:24.711Z,101121.37
2023-03-17T01:06:53.981Z,101119.83
2023-03-17T01:09:25.840Z,101120.70
2023-03-17T01:11:54.773Z,101117.27
2023-03-17T01:14:24.342Z,101114.61
2023-03-17T01:16:54.358Z,101111.62
2023-03-17T01:19:23.362Z,101113.21
2023-03-17T01:21:52.330Z,101110.11
2023-03-17T01:24:20.839Z,101108.38
2023-03-17T01:26:49.210Z,101098.92
2023-03-17T01:29:17.598Z,101090.04
2023-03-17T01:31:46.942Z,101082.83
2023-03-17T01:34:15.742Z,101088.29
2023-03-17T01:36:46.032Z,101077.65
2023-03-17T01:39:15.891Z,101067.23
2023-03-17T01:41:44.904Z,101069.36
2023-03-17T01:44:16.893Z,101080.54
2023-03-17T01:46:46.675Z,101072.54
2023-03-17T01:49:21.964Z,101070.45
2023-03-17T01:52:05.226Z,101071.17
2023-03-17T01:54:39.392Z,101073.52
2023-03-17T01:57:12.826Z,101070.38
2023-03-17T01:59:46.237Z,101064.36
2023-03-17T02:02:19.807Z,101057.64
2023-03-17T02:04:49.656Z,101061.91
2023-03-17T02:07:19.843Z,101062.76
2023-03-17T02:09:48.608Z,101054.70
2023-03-17T02:12:16.938Z,101046.85
2023-03-17T02:14:45.955Z,101043.23
2023-03-17T02:17:14.701Z,101050.09
2023-03-17T02:19:44.162Z,101058.02
2023-03-17T02:22:13.035Z,101058.18
2023-03-17T02:24:46.285Z,101060.27
2023-03-17T02:27:17.858Z,101058.63
2023-03-17T02:29:46.616Z,101047.27
2023-03-17T02:32:17.452Z,101053.30
2023-03-17T02:34:46.910Z,101045.70
2023-03-17T02:37:16.756Z,101042.17
2023-03-17T02:39:45.851Z,101038.83
2023-03-17T02:42:14.595Z,101041.09
2023-03-17T02:44:42.879Z,101046.85
2023-03-17T02:47:12.793Z,101049.85
2023-03-17T02:49:42.959Z,101043.43
2023-03-17T02:52:12.023Z,101030.30
2023-03-17T02:54:40.448Z,101032.58
2023-03-17T02:57:08.925Z,101034.91
2023-03-17T02:59:37.619Z,101028.47
2023-03-17T03:02:06.112Z,101027.23
2023-03-17T03:04:35.251Z,101034.41
2023-03-17T03:07:03.761Z,101029.14
2023-03-17T03:09:32.408Z,101031.46
2023-03-17T03:12:00.727Z,101048.85
2023-03-17T03:14:29.065Z,101048.02
2023-03-17T03:16:57.803Z,101046.11
2023-03-17T03:19:26.219Z,101047.46
2023-03-17T03:21:54.591Z,101037.45
2023-03-17T03:24:23.972Z,101035.90
2023-03-17T03:26:52.695Z,101039.52
2023-03-17T03:29:21.177Z,101037.02
2023-03-17T03:31:49.766Z,101030.73
2023-03-17T03:34:18.317Z,101038.05
2023-03-17T03:36:46.574Z,101031.95
2023-03-17T03:39:15.113Z,101027.77
2023-03-17T03:41:43.766Z,101018.60
2023-03-17T03:44:12.203Z,101010.82
2023-03-17T03:46:40.582Z,101006.39
2023-03-17T03:49:09.058Z,101006.56
2023-03-17T03:51:37.806Z,100996.29
2023-03-17T03:54:06.444Z,100983.21
2023-03-17T03:56:34.853Z,100989.33
2023-03-17T03:59:03.351Z,100986.14
2023-03-17T04:01:31.606Z,100978.58
2023-03-17T04:03:59.889Z,100977.98
2023-03-17T04:06:28.150Z,100988.85
2023-03-17T04:08:58.251Z,100997.13
2023-03-17T04:11:26.846Z,100995.52
2023-03-17T04:13:55.300Z,100994.80
2023-03-17T04:16:23.817Z,101003.18
2023-03-17T04:18:52.324Z,101012.10
2023-03-17T04:21:21.621Z,101013.30
2023-03-17T04:23:50.166Z,101010.85
2023-03-17T04:26:18.818Z,101009.10
2023-03-17T04:28:47.235Z,100998.29
2023-03-17T04:31:16.260Z,100994.23
2023-03-17T04:33:44.706Z,100987.98
2023-03-17T04:36:18.947Z,100995.46
2023-03-17T04:38:47.320Z,100997.06
2023-03-17T04:41:16.257Z,101006.14
2023-03-17T04:43:44.663Z,101009.69
2023-03-17T04:46:13.942Z,101009.54
2023-03-17T04:48:42.627Z,101004.46
2023-03-17T04:51:11.961Z,101003.20
2023-03-17T04:53:40.514Z,101003.58
2023-03-17T04:56:09.116Z,101005.90
2023-03-17T04:58:37.594Z,101001.55
2023-03-17T05:01:06.698Z,101008.83
2023-03-17T05:03:35.534Z,101010.09
2023-03-17T05:06:04.733Z,101012.98
2023-03-17T05:08:33.063Z,101014.24
2023-03-17T05:11:01.641Z,101005.08
2023-03-17T05:13:31.156Z,101000.27
2023-03-17T05:16:00.836Z,100991.86
2023-03-17T05:18:29.892Z,100988.65
2023-03-17T05:20:58.258Z,100989.11
2023-03-17T05:23:26.589Z,100993.73
2023-03-17T05:25:55.319Z,101002.16
2023-03-17T05:28:24.455Z,101003.48
2023-03-17T05:30:53.394Z,101003.55
2023-03-17T05:33:22.287Z,101000.95
2023-03-17T05:35:52.875Z,101003.61
2023-03-17T05:38:21.480Z,101011.69
2023-03-17T05:40:50.846Z,101005.09
2023-03-17T05:43:19.327Z,101006.50
2023-03-17T05:45:49.781Z,101010.91
2023-03-17T05:48:18.186Z,101004.48
2023-03-17T05:50:46.593Z,101007.54
2023-03-17T05:53:15.646Z,101005.12
2023-03-17T05:55:44.133Z,101005.80
2023-03-17T05:58:14.802Z,101003.35
2023-03-17T06:00:43.897Z,100995.98
2023-03-17T06:03:12.476Z,100989.73
2023-03-17T06:05:41.173Z,100987.77
2023-03-17T06:08:10.079Z,100984.77
2023-03-17T06:10:38.456Z,100983.55
2023-03-17T06:13:07.231Z,100977.06
2023-03-17T06:15:36.410Z,100975.45
2023-03-17T06:18:05.770Z,100972.69
2023-03-17T06:20:34.835Z,100968.89
2023-03-17T06:23:05.620Z,100971.05
2023-03-17T06:25:35.368Z,100972.70
2023-03-17T06:28:04.689Z,100976.77
2023-03-17T06:30:35.142Z,100978.84
2023-03-17T06:33:05.062Z,100980.54
2023-03-17T06:35:34.630Z,100985.55
2023-03-17T06:38:03.268Z,100987.20
2023-03-17T06:40:33.343Z,100986.67
2023-03-17T06:43:02.652Z,100981.42
2023-03-17T06:45:32.362Z,100976.63
2023-03-17T06:48:00.940Z,100980.29
2023-03-17T06:50:29.704Z,100977.16
2023-03-17T06:52:58.164Z,100982.70
2023-03-17T06:55:27.036Z,100983.61
2023-03-17T06:57:55.477Z,100984.71
2023-03-17T07:00:24.392Z,100987.69
2023-03-17T07:02:53.025Z,100996.70
2023-03-17T07:05:22.058Z,100998.17
2023-03-17T07:07:50.422Z,100994.73
2023-03-17T07:10:19.573Z,100997.48
2023-03-17T07:12:48.514Z,101004.70
2023-03-17T07:15:18.264Z,101008.52
2023-03-17T07:17:47.451Z,101015.05
2023-03-17T07:20:16.100Z,101016.02
2023-03-17T07:22:44.393Z,101015.67
2023-03-17T07:25:12.917Z,101013.73
2023-03-17T07:27:41.664Z,101011.64
2023-03-17T07:30:14.280Z,101009.20
2023-03-17T07:32:42.583Z,101003.38
2023-03-17T07:35:11.596Z,100983.20
2023-03-17T07:37:39.958Z,100976.63
2023-03-17T07:40:11.035Z,100975.27
2023-03-17T07:42:39.404Z,100974.59
2023-03-17T07:45:09.412Z,100976.45
2023-03-17T07:47:38.580Z,100979.15
2023-03-17T07:50:08.876Z,100973.44
2023-03-17T07:52:37.315Z,100960.58
2023-03-17T07:55:09.922Z,100946.98
2023-03-17T07:57:38.900Z,100946.46
2023-03-17T08:00:10.131Z,100946.16
2023-03-17T08:02:41.598Z,100941.18
2023-03-17T08:05:11.077Z,100944.07
2023-03-17T08:07:39.841Z,100943.91
2023-03-17T08:10:12.162Z,100939.45
2023-03-17T08:12:41.195Z,100944.69
2023-03-17T08:15:11.458Z,100944.55
2023-03-17T08:17:40.058Z,100941.52
2023-03-17T08:20:11.451Z,100939.20
2023-03-17T08:22:39.883Z,100935.08
2023-03-17T08:25:10.763Z,100936.54
2023-03-17T08:27:39.341Z,100936.91
2023-03-17T08:30:10.638Z,100931.72
2023-03-17T08:32:39.164Z,100939.09
2023-03-17T08:35:10.980Z,100949.15
2023-03-17T08:37:39.352Z,100949.89
2023-03-17T08:40:09.717Z,100948.64
2023-03-17T08:42:38.084Z,100946.48
2023-03-17T08:45:09.440Z,100949.18
2023-03-17T08:47:38.593Z,100939.14
2023-03-17T08:50:10.677Z,100934.11
2023-03-17T08:52:38.979Z,100916.88
2023-03-17T08:55:08.363Z,100907.36
2023-03-17T08:57:37.345Z,100910.95
2023-03-17T09:00:10.501Z,100910.23
2023-03-17T09:02:40.643Z,100915.27
2023-03-17T09:05:10.968Z,100916.34
2023-03-17T09:07:39.318Z,100908.61
2023-03-17T09:10:10.531Z,100908.77
2023-03-17T09:12:39.100Z,100910.73
2023-03-17T09:15:11.242Z,100905.32
2023-03-17T09:17:43.075Z,100898.45
2023-03-17T09:20:13.045Z,100893.41
2023-03-17T09:22:41.950Z,100900.98
2023-03-17T09:25:10.743Z,100898.43
2023-03-17T09:27:39.245Z,100892.86
2023-03-17T09:30:10.305Z,100900.92
2023-03-17T09:32:39.501Z,100899.29
2023-03-17T09:35:09.416Z,100900.51
2023-03-17T09:37:38.646Z,100904.07
2023-03-17T09:40:12.208Z,100897.74
2023-03-17T09:42:51.827Z,100893.61
2023-03-17T09:45:31.653Z,100895.09
2023-03-17T09:48:23.962Z,100894.19
2023-03-17T09:50:57.204Z,100890.04
2023-03-17T09:53:33.329Z,100882.65
2023-03-17T09:56:08.482Z,100882.09
2023-03-17T09:58:39.038Z,100877.38
2023-03-17T10:01:12.090Z,100873.89
2023-03-17T10:03:41.986Z,100873.21
2023-03-17T10:06:24.451Z,100868.78
2023-03-17T10:08:59.872Z,100865.82
2023-03-17T10:11:39.115Z,100875.04
2023-03-17T10:14:23.018Z,100887.41
2023-03-17T10:16:59.733Z,100883.86
2023-03-17T10:19:32.339Z,100880.42
2023-03-17T10:22:06.119Z,100869.36
2023-03-17T10:24:41.242Z,100856.92
2023-03-17T10:27:16.602Z,100852.98
2023-03-17T10:29:48.358Z,100841.88
2023-03-17T10:32:17.629Z,100836.89
2023-03-17T10:34:48.103Z,100825.69
2023-03-17T10:37:22.451Z,100822.12
2023-03-17T10:39:53.825Z,100820.58
2023-03-17T10:42:25.065Z,100821.15
2023-03-17T10:44:56.047Z,100821.55
2023-03-17T10:47:33.221Z,100815.48
2023-03-17T10:50:17.321Z,100805.44
2023-03-17T10:52:48.835Z,100802.91
2023-03-17T10:55:21.798Z,100798.14
2023-03-17T10:57:53.787Z,100806.55
2023-03-17T11:00:24.381Z,100801.14
2023-03-17T11:02:57.550Z,100798.04
2023-03-17T11:05:28.543Z,100801.56
2023-03-17T11:08:10.154Z,100798.50
2023-03-17T11:10:40.052Z,100780.11
2023-03-17T11:13:09.568Z,100768.79
2023-03-17T11:15:42.735Z,100759.25
2023-03-17T11:18:18.549Z,100754.36
2023-03-17T11:20:56.143Z,100748.98
2023-03-17T11:23:40.457Z,100750.98
2023-03-17T11:26:22.161Z,100753.48
2023-03-17T11:29:04.219Z,100751.52
2023-03-17T11:31:40.930Z,100750.94
2023-03-17T11:34:17.223Z,100746.42
2023-03-17T11:36:57.791Z,100744.96
2023-03-17T11:39:32.516Z,100744.48
2023-03-17T11:45:04.953Z,100737.42
2023-03-17T11:47:48.776Z,100739.98
2023-03-17T11:50:29.047Z,100734.91
2023-03-17T11:53:12.219Z,100730.88
2023-03-17T11:55:50.082Z,100729.64
2023-03-17T11:58:29.185Z,100729.25
2023-03-17T12:01:03.871Z,100731.80
2023-03-17T12:03:42.563Z,100725.23
2023-03-17T12:06:20.530Z,100714.73
2023-03-17T12:08:59.810Z,100706.11
2023-03-17T12:11:36.801Z,100706.23
2023-03-17T12:14:22.643Z,100702.10
2023-03-17T12:17:01.303Z,100692.47
2023-03-17T12:19:42.408Z,100697.30
2023-03-17T12:22:22.775Z,100691.13
2023-03-17T12:25:05.276Z,100692.07
2023-03-17T12:27:45.788Z,100683.59
2023-03-17T12:30:29.137Z,100685.89
2023-03-17T12:33:06.260Z,100689.10
2023-03-17T12:35:39.455Z,100690.20
2023-03-17T12:38:17.525Z,100697.79
2023-03-17T12:41:21.918Z,100705.86
2023-03-17T12:44:06.118Z,100698.30
2023-03-17T12:46:51.420Z,100694.02
2023-03-17T12:52:55.748Z,100689.52
2023-03-17T12:55:32.387Z,100688.73
2023-03-17T12:58:18.071Z,100696.47
2023-03-17T13:01:01.924Z,100684.41
2023-03-17T13:03:37.136Z,100683.64
2023-03-17T13:06:18.546Z,100676.68
2023-03-17T13:08:53.837Z,100676.32
2023-03-17T13:11:48.905Z,100674.20
2023-03-17T13:14:28.294Z,100674.70
2023-03-17T13:17:29.838Z,100681.55
2023-03-17T13:20:16.130Z,100679.52
2023-03-17T13:23:04.073Z,100676.29
2023-03-17T13:25:49.792Z,100670.83
2023-03-17T13:28:28.784Z,100665.61
2023-03-17T13:31:13.154Z,100662.80
2023-03-17T13:33:50.562Z,100662.30
2023-03-17T13:36:38.519Z,100661.34
2023-03-17T13:39:39.720Z,100656.52
2023-03-17T13:42:57.025Z,100648.84
2023-03-17T13:45:44.037Z,100650.15
2023-03-17T13:48:36.343Z,100649.19
2023-03-17T13:51:20.746Z,100647.95
2023-03-17T13:53:56.413Z,100639.89
2023-03-17T13:56:46.759Z,100645.31
2023-03-17T13:59:20.287Z,100648.70
2023-03-17T14:01:58.891Z,100643.77
2023-03-17T14:04:41.744Z,100646.30
2023-03-17T14:07:20.413Z,100650.63
2023-03-17T14:09:59.284Z,100653.73
2023-03-17T14:12:40.370Z,100644.67
2023-03-17T14:15:21.642Z,100643.31
2023-03-17T14:17:57.610Z,100632.64
2023-03-17T14:20:30.646Z,100627.98
2023-03-17T14:23:05.010Z,100629.86
2023-03-17T14:25:38.727Z,100627.02
2023-03-17T14:28:15.443Z,100630.30
2023-03-17T14:30:55.855Z,100629.70
2023-03-17T14:33:29.264Z,100624.30
2023-03-17T14:36:04.362Z,100623.60
2023-03-17T14:38:38.125Z,100615.46
2023-03-17T14:41:17.531Z,100615.54
2023-03-17T14:43:51.171Z,100610.83
2023-03-17T14:46:27.492Z,100611.91
2023-03-17T14:49:03.355Z,100612.35
2023-03-17T14:51:37.642Z,100609.05
2023-03-17T14:54:16.718Z,100609.00
2023-03-17T14:56:52.909Z,100605.95
2023-03-17T14:59:30.383Z,100598.76
2023-03-17T15:02:05.037Z,100589.18
2023-03-17T15:04:36.921Z,100590.26
2023-03-17T15:07:22.450Z,100584.48
2023-03-17T15:10:02.936Z,100581.35
2023-03-17T15:12:34.898Z,100580.77
2023-03-17T15:15:15.455Z,100581.60
2023-03-17T15:17:51.418Z,100586.75
2023-03-17T15:20:23.752Z,100589.17
2023-03-17T15:23:01.494Z,100586.86
2023-03-17T15:25:40.342Z,100579.15
2023-03-17T15:28:15.975Z,100579.29
2023-03-17T15:30:50.472Z,100576.62
2023-03-17T15:33:31.847Z,100576.54
2023-03-17T15:36:04.098Z,100580.42
2023-03-17T15:38:38.892Z,100583.31
2023-03-17T15:41:11.493Z,100588.20
2023-03-17T15:43:44.492Z,100587.02
2023-03-17T15:46:27.470Z,100590.40
2023-03-17T15:49:01.801Z,100590.07
2023-03-17T15:51:34.329Z,100590.25
2023-03-17T15:54:06.406Z,100585.48
2023-03-17T15:56:39.704Z,100585.20
2023-03-17T15:59:12.071Z,100582.34
2023-03-17T16:01:44.333Z,100578.36
2023-03-17T16:04:17.955Z,100582.34
2023-03-17T16:06:50.061Z,100583.91
2023-03-17T16:09:21.929Z,100576.13
2023-03-17T16:11:54.216Z,100579.31
2023-03-17T16:14:27.049Z,100575.06
2023-03-17T16:16:59.016Z,100574.66
2023-03-17T16:19:31.193Z,100571.60
2023-03-17T16:22:03.584Z,100571.15
2023-03-17T16:24:35.567Z,100566.19
2023-03-17T16:27:15.895Z,100566.23
2023-03-17T16:29:47.698Z,100565.04
2023-03-17T16:32:19.598Z,100561.68
2023-03-17T16:34:52.171Z,100559.92
2023-03-17T16:37:24.071Z,100553.68
2023-03-17T16:39:55.888Z,100557.20
2023-03-17T16:42:28.305Z,100557.98
2023-03-17T16:45:00.350Z,100559.63
2023-03-17T16:47:32.300Z,100562.40
2023-03-17T16:50:04.501Z,100556.30
2023-03-17T16:52:36.210Z,100567.80
2023-03-17T16:55:14.229Z,100567.42
2023-03-17T16:57:48.786Z,100566.20
2023-03-17T17:00:24.712Z,100562.44
2023-03-17T17:02:57.394Z,100568.70
2023-03-17T17:05:28.778Z,100564.23
2023-03-17T17:08:01.622Z,100566.27
2023-03-17T17:10:34.943Z,100564.34
2023-03-17T17:13:09.022Z,100566.73
2023-03-17T17:15:41.930Z,100563.45
2023-03-17T17:18:17.477Z,100564.67
2023-03-17T17:20:51.537Z,100569.34
2023-03-17T17:23:26.230Z,100566.13
2023-03-17T17:25:58.352Z,100567.09
2023-03-17T17:28:30.183Z,100563.33
2023-03-17T17:31:03.040Z,100563.08
2023-03-17T17:33:36.393Z,100548.58
2023-03-17T17:36:14.676Z,100553.67
2023-03-17T17:38:47.023Z,100550.09
2023-03-17T17:41:21.522Z,100552.69
2023-03-17T17:43:54.185Z,100556.89
2023-03-17T17:46:24.646Z,100562.85
2023-03-17T17:48:56.723Z,100560.21
2023-03-17T17:51:28.766Z,100555.53
2023-03-17T17:54:00.781Z,100549.98
2023-03-17T17:56:36.704Z,100551.64
2023-03-17T17:59:08.499Z,100547.73
2023-03-17T18:01:42.789Z,100550.08
2023-03-17T18:04:14.608Z,100545.09
2023-03-17T18:06:46.624Z,100540.08
2023-03-17T18:09:19.026Z,100545.58
2023-03-17T18:11:51.156Z,100544.64
2023-03-17T18:14:22.857Z,100543.02
2023-03-17T18:16:55.160Z,100546.14
2023-03-17T18:19:27.727Z,100548.95
2023-03-17T18:21:59.687Z,100549.11
2023-03-17T18:24:31.482Z,100549.15
2023-03-17T18:27:03.814Z,100548.52
2023-03-17T18:29:36.840Z,100548.17
2023-03-17T18:32:09.604Z,100548.10
2023-03-17T18:34:45.339Z,100547.32
2023-03-17T18:37:19.662Z,100539.73
2023-03-17T18:40:11.652Z,100543.74
2023-03-17T18:42:44.012Z,100540.02
2023-03-17T18:45:16.291Z,100538.58
2023-03-17T18:47:48.269Z,100535.73
2023-03-17T18:50:22.042Z,100531.92
2023-03-17T18:52:55.827Z,100528.89
2023-03-17T18:55:27.769Z,100528.40
2023-03-17T18:57:59.679Z,100522.46
2023-03-17T19:00:31.611Z,100520.90
2023-03-17T19:03:03.637Z,100521.89
2023-03-17T19:05:39.414Z,100518.84
2023-03-17T19:08:11.580Z,100519.60
2023-03-17T19:10:46.524Z,100517.30
2023-03-17T19:13:20.570Z,100514.30
2023-03-17T19:15:52.503Z,100516.13
2023-03-17T19:18:24.274Z,100526.95
2023-03-17T19:20:56.685Z,100521.92
2023-03-17T19:23:29.951Z,100518.58
2023-03-17T19:26:02.196Z,100522.61
2023-03-17T19:28:34.369Z,100524.50
2023-03-17T19:31:06.635Z,100526.70
2023-03-17T19:33:38.838Z,100520.45
2023-03-17T19:36:14.061Z,100521.69
2023-03-17T19:38:46.315Z,100517.75
2023-03-17T19:41:18.246Z,100513.80
2023-03-17T19:43:50.178Z,100509.36
2023-03-17T19:46:23.986Z,100508.48
2023-03-17T19:48:57.809Z,100505.13
2023-03-17T19:51:30.195Z,100499.55
2023-03-17T19:54:03.100Z,100499.90
2023-03-17T19:56:35.386Z,100497.77
2023-03-17T19:59:09.060Z,100494.76
2023-03-17T20:01:42.285Z,100488.80
2023-03-17T20:04:17.638Z,100486.45
2023-03-17T20:06:52.211Z,100490.96
2023-03-17T20:09:25.567Z,100490.86
2023-03-17T20:11:57.713Z,100486.20
2023-03-17T20:14:29.834Z,100481.02
2023-03-17T20:17:02.279Z,100478.66
2023-03-17T20:19:36.795Z,100475.84
2023-03-17T20:22:09.167Z,100473.70
2023-03-17T20:24:42.039Z,100475.16
2023-03-17T20:27:15.435Z,100466.92
2023-03-17T20:29:48.645Z,100469.25
2023-03-17T20:32:20.930Z,100464.31
2023-03-17T20:34:52.766Z,100472.92
2023-03-17T20:37:25.538Z,100470.27
2023-03-17T20:39:57.575Z,100476.80
2023-03-17T20:42:29.373Z,100475.82
2023-03-17T20:45:03.507Z,100476.61
2023-03-17T20:47:36.119Z,100479.52
2023-03-17T20:50:09.919Z,100477.63
2023-03-17T20:52:46.402Z,100474.47
2023-03-17T20:55:20.232Z,100471.95
2023-03-17T20:57:52.837Z,100468.38
2023-03-17T21:00:26.321Z,100469.29
2023-03-17T21:02:58.500Z,100468.23
2023-03-17T21:05:32.324Z,100464.63
2023-03-17T21:08:05.561Z,100461.61
2023-03-17T21:10:36.019Z,100458.93
2023-03-17T21:13:08.102Z,100456.41
2023-03-17T21:15:41.221Z,100453.09
2023-03-17T21:18:15.472Z,100451.15
2023-03-17T21:20:48.237Z,100446.94
2023-03-17T21:23:18.545Z,100449.05
2023-03-17T21:25:55.271Z,100448.76
2023-03-17T21:28:27.492Z,100448.75
2023-03-17T21:30:59.730Z,100447.01
2023-03-17T21:33:32.435Z,100446.48
2023-03-17T21:36:04.692Z,100445.64
2023-03-17T21:38:37.596Z,100449.20
2023-03-17T21:41:27.897Z,100449.05
2023-03-17T21:44:00.263Z,100446.77
2023-03-17T21:46:33.581Z,100445.17
2023-03-17T21:49:06.033Z,100443.58
2023-03-17T21:51:38.438Z,100439.41
2023-03-17T21:54:10.651Z,100434.27
2023-03-17T21:56:42.943Z,100430.52
2023-03-17T21:59:15.502Z,100431.46
2023-03-17T22:01:48.212Z,100429.48
2023-03-17T22:04:18.437Z,100431.13
2023-03-17T22:06:51.780Z,100428.83
2023-03-17T22:09:23.655Z,100426.91
2023-03-17T22:11:55.735Z,100429.48
2023-03-17T22:14:27.554Z,100429.80
2023-03-17T22:16:59.753Z,100429.42
2023-03-17T22:19:32.024Z,100432.39
2023-03-17T22:22:04.150Z,100433.85
2023-03-17T22:24:36.352Z,100434.39
2023-03-17T22:27:09.356Z,100435.65
2023-03-17T22:29:41.094Z,100438.48
2023-03-17T22:32:13.339Z,100436.17
2023-03-17T22:34:45.231Z,100438.88
2023-03-17T22:37:17.016Z,100437.11
2023-03-17T22:39:49.206Z,100441.60
2023-03-17T22:42:21.310Z,100444.65
2023-03-17T22:44:53.198Z,100441.63
2023-03-17T22:47:25.002Z,100440.35
2023-03-17T22:49:56.813Z,100438.61
2023-03-17T22:52:28.889Z,100433.98
2023-03-17T22:55:01.020Z,100436.14
2023-03-17T22:57:32.798Z,100433.27
2023-03-17T23:00:08.957Z,100428.98
2023-03-17T23:02:40.815Z,100434.55
2023-03-17T23:05:14.444Z,100428.81
2023-03-17T23:07:53.275Z,100430.44
2023-03-17T23:10:25.348Z,100431.38
2023-03-17T23:12:57.100Z,100432.64
2023-03-17T23:15:29.340Z,100430.17
2023-03-17T23:18:01.755Z,100432.34
2023-03-17T23:20:34.375Z,100430.86
2023-03-17T23:23:06.974Z,100428.71
2023-03-17T23:25:39.558Z,100428.16
2023-03-17T23:28:11.562Z,100430.13
2023-03-17T23:30:45.699Z,100426.59
2023-03-17T23:33:21.158Z,100427.53
2023-03-17T23:35:53.618Z,100422.56
2023-03-17T23:38:25.373Z,100418.81
2023-03-17T23:40:58.218Z,100419.19
2023-03-17T23:43:28.456Z,100416.14
2023-03-17T23:46:01.883Z,100410.23
2023-03-17T23:48:33.869Z,100418.13
2023-03-17T23:51:06.317Z,100415.07
2023-03-17T23:53:39.487Z,100415.61
2023-03-17T23:56:12.947Z,100422.65
2023-03-17T23:58:45.035Z,100424.63
